Time;durP1;ratioP1;P1;durP2;ratioP2;P2;SDS_P1;SDS_P2;PMS_P1;PMS_P2;Temp;Humidity;BMP_temperature;BMP_pressure;BME280_temperature;BME280_humidity;BME280_pressure;Samples;Min_cycle;Max_cycle;Signal;HPM_P1;HPM_P2
2023/04/26 00:00:23;;;;;;;;;1.00;1.00;;;;;21.83;48.65;100198.74;111969;1266;19020;-38
2023/04/26 00:03:11;;;;;;;;;1.00;1.00;;;;;21.82;48.60;100200.07;111605;1266;23447;-38
2023/04/26 00:05:39;;;;;;;;;1.00;1.00;;;;;21.82;48.64;100200.45;111786;1266;21525;-38
2023/04/26 00:08:06;;;;;;;;;1.00;1.00;;;;;21.83;48.40;100201.30;111487;1250;19669;-38
2023/04/26 00:10:34;;;;;;;;;1.00;1.00;;;;;21.83;48.55;100200.92;111845;1250;20684;-38
2023/04/26 00:13:01;;;;;;;;;1.00;1.00;;;;;21.84;48.48;100203.79;111538;1266;20014;-38
2023/04/26 00:15:29;;;;;;;;;1.00;1.00;;;;;21.84;48.57;100205.05;111860;1250;19546;-38
2023/04/26 00:17:56;;;;;;;;;1.00;1.00;;;;;21.83;48.52;100201.77;111501;1266;20707;-38
2023/04/26 00:20:23;;;;;;;;;1.00;1.00;;;;;21.83;48.45;100204.84;111832;1250;21713;-38
2023/04/26 00:22:51;;;;;;;;;1.00;1.00;;;;;21.82;48.44;100203.86;111550;1266;19703;-38
2023/04/26 00:25:18;;;;;;;;;1.00;1.00;;;;;21.84;48.47;100207.85;111888;1266;19391;-38
2023/04/26 00:27:46;;;;;;;;;1.00;1.00;;;;;21.84;48.46;100207.70;111578;1266;21396;-36
2023/04/26 00:30:13;;;;;;;;;1.00;1.00;;;;;21.84;48.50;100209.71;111882;1266;19596;-38
2023/04/26 00:32:41;;;;;;;;;1.00;1.00;;;;;21.84;48.48;100208.23;111598;1266;20660;-38
2023/04/26 00:35:08;;;;;;;;;1.00;1.00;;;;;21.83;48.46;100209.96;111925;1266;21458;-38
2023/04/26 00:37:35;;;;;;;;;1.00;1.00;;;;;21.84;48.50;100213.52;111629;1266;19564;-38
2023/04/26 00:40:03;;;;;;;;;1.00;1.00;;;;;21.82;48.40;100217.16;111963;1266;20510;-38
2023/04/26 00:42:31;;;;;;;;;1.00;1.00;;;;;21.83;48.38;100224.13;111557;1266;20116;-38
2023/04/26 00:44:58;;;;;;;;;1.00;1.00;;;;;21.83;48.41;100223.63;111878;1266;18880;-38
2023/04/26 00:47:26;;;;;;;;;2.00;1.00;;;;;21.83;48.42;100226.19;111581;1266;20833;-38
2023/04/26 00:49:53;;;;;;;;;1.00;1.00;;;;;21.82;48.53;100219.34;111906;1250;22646;-38
2023/04/26 00:52:20;;;;;;;;;1.00;1.00;;;;;21.82;48.56;100217.48;111609;1266;19545;-38
2023/04/26 00:54:48;;;;;;;;;2.00;2.00;;;;;21.83;48.44;100214.94;111934;1266;19285;-39
2023/04/26 00:57:15;;;;;;;;;1.00;1.00;;;;;21.84;48.47;100217.00;111663;1250;21490;-38
2023/04/26 00:59:43;;;;;;;;;1.00;1.00;;;;;21.82;48.25;100219.59;112001;1250;19613;-39
2023/04/26 01:02:10;;;;;;;;;1.00;1.00;;;;;21.83;48.33;100222.91;111710;1250;19347;-39
2023/04/26 01:04:38;;;;;;;;;1.00;1.00;;;;;21.83;48.41;100226.32;112005;1266;22190;-43
2023/04/26 01:07:06;;;;;;;;;1.00;1.00;;;;;21.83;48.38;100225.73;111547;1266;18798;-39
2023/04/26 01:09:33;;;;;;;;;1.00;1.00;;;;;21.83;48.47;100219.95;111907;1250;20751;-39
2023/04/26 01:12:01;;;;;;;;;1.00;1.00;;;;;21.83;48.38;100227.21;111605;1266;20118;-39
2023/04/26 01:14:28;;;;;;;;;1.00;1.00;;;;;21.83;48.43;100225.30;111933;1266;19543;-40
2023/04/26 01:16:55;;;;;;;;;1.00;1.00;;;;;21.84;48.33;100223.94;111661;1266;19313;-40
2023/04/26 01:19:24;;;;;;;;;1.00;1.00;;;;;21.85;48.36;100224.61;111953;1266;21667;-41
2023/04/26 01:21:51;;;;;;;;;1.00;1.00;;;;;21.85;48.31;100225.58;111475;1250;19639;-39
2023/04/26 01:24:19;;;;;;;;;1.00;1.00;;;;;21.84;48.31;100222.72;111820;1266;19348;-40
2023/04/26 01:26:46;;;;;;;;;1.00;1.00;;;;;21.83;48.27;100222.46;111487;1266;21349;-40
2023/04/26 01:29:14;;;;;;;;;1.00;1.00;;;;;21.84;48.27;100225.15;111859;1250;19529;-40
2023/04/26 01:31:42;;;;;;;;;1.00;1.00;;;;;21.84;48.19;100227.05;111463;1266;20740;-39
2023/04/26 01:34:09;;;;;;;;;1.00;1.00;;;;;21.83;48.32;100227.63;111804;1266;20292;-39
2023/04/26 01:36:36;;;;;;;;;1.50;1.00;;;;;21.84;48.24;100234.51;111489;1250;18660;-39
2023/04/26 01:39:04;;;;;;;;;1.00;1.00;;;;;21.84;48.11;100238.20;111797;1266;21300;-40
2023/04/26 01:41:32;;;;;;;;;1.00;1.00;;;;;21.84;48.37;100229.98;111487;1250;21550;-39
2023/04/26 01:44:00;;;;;;;;;1.00;1.00;;;;;21.84;48.19;100234.56;111777;1266;18733;-39
2023/04/26 01:46:27;;;;;;;;;1.00;1.00;;;;;21.83;48.04;100234.54;112064;1266;20900;-41
2023/04/26 01:48:56;;;;;;;;;1.00;1.00;;;;;21.83;48.25;100238.33;111717;1250;21569;-39
2023/04/26 01:51:23;;;;;;;;;1.00;1.00;;;;;21.84;48.21;100241.31;111924;1250;19691;-38
2023/04/26 01:53:50;;;;;;;;;1.00;1.00;;;;;21.84;48.26;100240.72;111616;1251;20616;-38
2023/04/26 01:56:18;;;;;;;;;1.00;1.00;;;;;21.84;48.35;100243.08;111943;1266;20462;-38
2023/04/26 01:58:45;;;;;;;;;1.00;1.00;;;;;21.83;48.28;100240.34;111631;1266;20663;-38
2023/04/26 02:04:15;;;;;;;;;1.00;1.00;;;;;21.83;48.12;100243.10;111645;1266;21408;-38
2023/04/26 02:06:43;;;;;;;;;1.00;1.00;;;;;21.82;48.25;100243.02;111986;1266;18645;-38
2023/04/26 02:09:10;;;;;;;;;1.00;1.00;;;;;21.84;48.08;100243.86;111669;1266;20650;-37
2023/04/26 02:11:37;;;;;;;;;1.00;1.00;;;;;21.83;48.03;100241.80;112042;1251;21612;-42
2023/04/26 02:14:05;;;;;;;;;1.00;1.00;;;;;21.82;48.07;100237.00;111717;1250;20979;-38
2023/04/26 02:16:32;;;;;;;;;1.00;1.00;;;;;21.82;47.99;100233.76;111959;1266;19353;-40
2023/04/26 02:19:00;;;;;;;;;1.00;1.00;;;;;21.81;48.16;100232.16;111700;1250;21553;-39
2023/04/26 02:21:29;;;;;;;;;1.00;1.00;;;;;21.82;48.05;100232.09;111922;1250;18763;-39
2023/04/26 02:23:56;;;;;;;;;1.00;1.00;;;;;21.82;48.10;100233.02;111459;1266;20787;-39
2023/04/26 02:26:25;;;;;;;;;1.50;1.50;;;;;21.81;48.03;100232.54;111828;1266;21495;-39
2023/04/26 02:28:53;;;;;;;;;1.00;1.00;;;;;21.81;48.06;100229.52;111963;1266;20635;-38
2023/04/26 02:31:21;;;;;;;;;1.00;1.00;;;;;21.82;48.04;100227.19;111655;1266;19353;-39
2023/04/26 02:33:48;;;;;;;;;1.00;1.00;;;;;21.82;48.09;100224.67;111894;1266;21508;-39
2023/04/26 02:36:16;;;;;;;;;1.00;1.00;;;;;21.82;48.05;100220.67;111575;1250;19248;-38
2023/04/26 02:38:43;;;;;;;;;1.00;1.00;;;;;21.82;48.03;100221.59;111883;1266;21893;-38
2023/04/26 02:41:11;;;;;;;;;1.00;1.00;;;;;21.81;47.98;100225.36;111596;1250;19988;-38
2023/04/26 02:43:38;;;;;;;;;1.00;1.00;;;;;21.82;47.92;100227.14;111897;1266;19484;-39
2023/04/26 02:46:05;;;;;;;;;1.00;1.00;;;;;21.82;47.97;100228.15;111619;1266;19347;-38
2023/04/26 02:48:33;;;;;;;;;1.00;1.00;;;;;21.81;47.91;100224.91;111971;1259;21651;-39
2023/04/26 02:51:00;;;;;;;;;1.00;1.00;;;;;21.82;47.91;100222.03;111662;1250;19587;-39
2023/04/26 02:53:28;;;;;;;;;1.00;1.00;;;;;21.81;47.82;100223.10;112000;1259;20781;-40
2023/04/26 02:55:55;;;;;;;;;1.00;1.00;;;;;21.82;47.94;100219.92;111660;1266;20135;-39
2023/04/26 02:58:23;;;;;;;;;1.00;1.00;;;;;21.81;47.87;100220.74;112023;1250;18730;-42
2023/04/26 03:00:50;;;;;;;;;1.00;1.00;;;;;21.81;47.85;100224.02;111731;1250;20801;-39
2023/04/26 03:03:18;;;;;;;;;1.00;1.00;;;;;21.82;47.88;100221.42;111990;1266;20109;-39
2023/04/26 03:05:45;;;;;;;;;1.00;1.00;;;;;21.82;47.80;100229.95;111658;1250;20849;-40
2023/04/26 03:08:13;;;;;;;;;1.00;1.00;;;;;21.81;47.79;100233.29;111959;1266;19246;-40
2023/04/26 03:10:40;;;;;;;;;1.00;1.00;;;;;21.81;47.84;100232.41;111696;1250;22847;-39
2023/04/26 03:13:07;;;;;;;;;1.00;1.00;;;;;21.82;47.87;100233.77;111992;1266;19586;-39
2023/04/26 03:15:35;;;;;;;;;1.00;1.00;;;;;21.80;47.81;100232.11;111750;1250;20934;-38
2023/04/26 03:18:02;;;;;;;;;1.00;1.00;;;;;21.81;47.81;100235.98;111958;1250;23268;-39
2023/04/26 03:20:30;;;;;;;;;1.00;1.00;;;;;21.81;47.91;100236.61;111732;1266;18755;-38
2023/04/26 03:22:57;;;;;;;;;1.00;1.00;;;;;21.80;47.81;100239.96;111795;1266;20726;-39
2023/04/26 03:25:24;;;;;;;;;1.00;1.00;;;;;21.80;47.94;100243.98;111776;1250;20225;-39
2023/04/26 03:27:52;;;;;;;;;1.00;1.00;;;;;21.80;47.86;100241.43;111532;1266;19593;-38
2023/04/26 03:30:20;;;;;;;;;1.00;1.00;;;;;21.80;47.89;100244.33;111771;1266;19746;-38
2023/04/26 03:32:47;;;;;;;;;1.00;1.00;;;;;21.81;47.78;100248.60;111698;1266;21493;-38
2023/04/26 03:35:14;;;;;;;;;1.00;1.00;;;;;21.80;47.62;100250.50;111775;1250;20854;-39
2023/04/26 03:37:42;;;;;;;;;1.00;1.00;;;;;21.80;47.76;100251.39;111514;1266;19315;-39
2023/04/26 03:40:09;;;;;;;;;1.00;1.00;;;;;21.80;47.63;100256.38;111804;1250;21565;-39
2023/04/26 03:42:37;;;;;;;;;1.00;1.00;;;;;21.79;47.85;100254.86;111434;1266;18713;-39
2023/04/26 03:45:04;;;;;;;;;1.00;1.00;;;;;21.81;47.72;100260.11;111780;1266;22135;-39
2023/04/26 03:47:32;;;;;;;;;1.00;1.00;;;;;21.80;47.63;100260.69;111450;1266;21511;-39
2023/04/26 03:49:59;;;;;;;;;1.00;1.00;;;;;21.80;47.68;100264.73;111803;1258;19593;-39
2023/04/26 03:52:26;;;;;;;;;1.00;1.00;;;;;21.80;47.61;100262.03;111488;1266;21117;-39
2023/04/26 03:54:54;;;;;;;;;1.00;1.00;;;;;21.81;47.59;100264.09;111855;1250;20060;-38
2023/04/26 03:57:21;;;;;;;;;1.00;1.00;;;;;21.80;47.59;100264.52;111521;1266;18677;-39
2023/04/26 03:59:49;;;;;;;;;1.00;1.00;;;;;21.81;47.60;100266.11;111825;1259;21815;-39
2023/04/26 04:02:16;;;;;;;;;1.00;1.00;;;;;21.80;47.51;100268.20;111553;1250;21728;-39
2023/04/26 04:04:43;;;;;;;;;1.00;1.00;;;;;21.81;47.50;100272.11;111893;1266;19956;-38
2023/04/26 04:07:11;;;;;;;;;1.00;1.00;;;;;21.82;47.36;100272.89;111568;1259;20808;-39
2023/04/26 04:09:38;;;;;;;;;1.00;1.00;;;;;21.81;47.51;100275.39;111918;1266;20116;-39
2023/04/26 04:12:06;;;;;;;;;1.00;1.00;;;;;21.80;47.37;100279.80;111632;1250;19601;-39
2023/04/26 04:14:33;;;;;;;;;1.00;1.00;;;;;21.81;47.57;100278.42;111951;1266;19347;-39
2023/04/26 04:17:00;;;;;;;;;1.00;1.00;;;;;21.81;47.48;100285.55;111644;1250;21516;-39
2023/04/26 04:19:28;;;;;;;;;1.00;1.00;;;;;21.81;47.49;100283.70;111968;1266;18521;-39
2023/04/26 04:21:55;;;;;;;;;1.00;1.00;;;;;21.82;47.35;100281.74;111664;1250;20754;-39
2023/04/26 04:24:23;;;;;;;;;1.00;1.00;;;;;21.82;47.57;100281.70;112034;1250;21565;-39
2023/04/26 04:26:50;;;;;;;;;1.00;1.00;;;;;21.82;47.55;100285.92;111690;1250;19579;-38
2023/04/26 04:29:18;;;;;;;;;1.00;1.00;;;;;21.81;47.27;100286.00;112041;1266;19510;-40
2023/04/26 04:31:45;;;;;;;;;1.00;1.00;;;;;21.82;47.55;100289.55;111654;1266;20120;-39
2023/04/26 04:34:13;;;;;;;;;1.00;1.00;;;;;21.81;47.56;100287.48;111998;1266;18728;-39
2023/04/26 04:36:40;;;;;;;;;1.00;1.00;;;;;21.82;47.60;100288.80;111627;1266;19297;-38
2023/04/26 04:39:12;;;;;;;;;1.00;1.00;;;;;21.83;47.62;100293.30;111952;1266;20147;-39
2023/04/26 04:41:46;;;;;;;;;1.00;1.00;;;;;21.83;47.60;100291.63;111808;1250;19624;-38
2023/04/26 04:44:15;;;;;;;;;1.00;1.00;;;;;21.83;47.55;100289.14;111895;1250;21107;-39
2023/04/26 04:46:42;;;;;;;;;1.00;1.00;;;;;21.82;47.60;100291.52;111832;1259;22162;-39
2023/04/26 04:49:10;;;;;;;;;1.00;1.00;;;;;21.83;47.53;100294.18;111730;1266;19730;-39
2023/04/26 04:51:37;;;;;;;;;1.00;1.00;;;;;21.86;47.49;100293.75;111859;1266;19323;-39
2023/04/26 04:54:05;;;;;;;;;1.00;1.00;;;;;21.90;47.72;100294.45;111727;1254;21551;-39
2023/04/26 04:56:32;;;;;;;;;1.00;1.00;;;;;21.89;47.89;100295.77;111618;1266;18899;-39
2023/04/26 04:58:59;;;;;;;;;20.50;18.50;;;;;21.91;47.89;100299.88;111770;1266;19337;-38
2023/04/26 05:01:27;;;;;;;;;4809.75;4809.75;;;;;21.95;48.11;100303.98;111437;1266;20460;-38
2023/04/26 05:03:55;;;;;;;;;272.00;233.00;;;;;22.01;48.36;100305.55;111695;1266;18552;-39
2023/04/26 05:06:23;;;;;;;;;202.33;178.00;;;;;21.99;49.02;100305.66;111893;1266;20775;-39
2023/04/26 05:08:50;;;;;;;;;150.00;135.50;;;;;22.00;49.31;100311.47;111637;1250;21436;-38
2023/04/26 05:11:18;;;;;;;;;118.00;104.75;;;;;22.02;50.00;100309.43;111983;1253;20399;-43
2023/04/26 05:13:45;;;;;;;;;97.00;78.00;;;;;22.06;50.23;100312.46;111691;1266;20903;-39
2023/04/26 05:16:12;;;;;;;;;87.50;68.50;;;;;22.10;50.46;100313.39;111970;1266;20299;-40
2023/04/26 05:18:40;;;;;;;;;79.00;64.00;;;;;22.11;50.52;100316.77;111725;1266;18601;-38
2023/04/26 05:21:07;;;;;;;;;74.00;57.00;;;;;22.14;50.49;100318.23;111976;1266;20794;-39
2023/04/26 05:23:35;;;;;;;;;64.00;52.50;;;;;22.13;50.36;100318.05;111703;1266;21756;-40
2023/04/26 05:26:03;;;;;;;;;63.00;52.50;;;;;22.13;50.06;100321.11;111813;1266;20020;-38
2023/04/26 05:28:30;;;;;;;;;48.50;46.00;;;;;22.15;50.12;100320.72;111613;1266;19511;-38
2023/04/26 05:30:58;;;;;;;;;47.00;41.00;;;;;22.17;50.08;100326.67;111958;1266;21644;-40
2023/04/26 05:33:25;;;;;;;;;38.00;37.00;;;;;22.16;50.15;100321.64;111639;1250;20187;-38
2023/04/26 05:35:53;;;;;;;;;36.50;33.00;;;;;22.17;50.06;100324.84;111958;1266;19352;-38
2023/04/26 05:38:20;;;;;;;;;37.50;33.00;;;;;22.17;49.85;100323.08;111630;1250;20140;-38
2023/04/26 05:40:48;;;;;;;;;38.00;36.00;;;;;22.18;49.78;100324.56;111965;1266;18885;-40
2023/04/26 05:43:15;;;;;;;;;33.00;30.00;;;;;22.19;49.68;100330.63;111668;1250;19568;-39
2023/04/26 05:45:43;;;;;;;;;27.00;24.00;;;;;22.18;49.74;100334.90;112000;1250;21471;-40
2023/04/26 05:48:10;;;;;;;;;21.33;18.67;;;;;22.13;49.67;100336.40;111688;1266;18845;-38
2023/04/26 05:50:37;;;;;;;;;20.00;18.00;;;;;21.96;47.93;100336.95;112011;1251;22098;-40
2023/04/26 05:53:05;;;;;;;;;17.00;15.00;;;;;21.90;47.25;100338.83;111683;1266;20111;-39
2023/04/26 05:55:32;;;;;;;;;14.00;12.00;;;;;21.87;46.29;100337.16;111894;1253;20020;-38
2023/04/26 05:58:00;;;;;;;;;8.00;8.00;;;;;21.81;45.46;100338.77;111737;1266;21779;-39
2023/04/26 06:00:27;;;;;;;;;8.00;8.00;;;;;21.77;44.48;100337.35;111671;1266;21457;-39
2023/04/26 06:02:55;;;;;;;;;9.33;9.33;;;;;21.71;43.55;100335.77;111737;1266;19244;-40
2023/04/26 06:05:22;;;;;;;;;9.00;9.00;;;;;21.66;42.95;100331.85;111731;1266;19353;-40
2023/04/26 06:07:50;;;;;;;;;5.00;5.00;;;;;21.68;42.09;100335.17;111774;1266;21731;-39
2023/04/26 06:10:18;;;;;;;;;7.50;7.00;;;;;21.66;41.49;100331.77;112003;1266;19786;-41
2023/04/26 06:12:45;;;;;;;;;4.33;4.33;;;;;21.69;41.11;100333.67;111700;1266;19316;-39
2023/04/26 06:15:12;;;;;;;;;5.00;5.00;;;;;21.68;40.72;100336.69;112033;1250;20135;-39
2023/04/26 06:17:40;;;;;;;;;7.00;7.00;;;;;21.67;40.14;100341.39;111691;1266;18577;-39
2023/04/26 06:20:08;;;;;;;;;7.00;4.50;;;;;21.64;39.44;100336.20;111987;1251;21997;-41
2023/04/26 06:22:35;;;;;;;;;4.00;3.00;;;;;21.65;39.43;100330.53;111670;1250;21366;-39
2023/04/26 06:25:03;;;;;;;;;4.50;4.00;;;;;21.65;39.05;100330.02;111983;1252;19676;-40
2023/04/26 06:27:30;;;;;;;;;4.50;4.50;;;;;21.65;38.67;100334.70;111608;1266;19392;-40
2023/04/26 06:29:58;;;;;;;;;4.00;4.00;;;;;21.66;38.40;100330.27;111913;1266;22971;-40
2023/04/26 06:32:25;;;;;;;;;3.00;3.00;;;;;21.65;38.23;100332.90;111645;1250;19595;-39
2023/04/26 06:34:53;;;;;;;;;4.00;4.00;;;;;21.66;37.78;100332.02;111984;1266;19359;-39
2023/04/26 06:37:21;;;;;;;;;3.33;2.00;;;;;21.65;37.77;100328.27;111570;1259;21519;-39
2023/04/26 06:39:48;;;;;;;;;4.00;4.00;;;;;21.65;37.35;100332.01;111888;1266;20687;-38
2023/04/26 06:42:16;;;;;;;;;4.00;2.00;;;;;21.65;37.24;100333.98;111589;1266;19360;-39
2023/04/26 06:44:43;;;;;;;;;4.00;2.00;;;;;21.64;36.97;100332.08;111940;1266;22647;-39
2023/04/26 06:47:10;;;;;;;;;4.00;4.00;;;;;21.63;36.46;100331.27;111675;1266;19547;-40
2023/04/26 06:49:38;;;;;;;;;4.00;4.00;;;;;21.62;36.58;100334.29;111948;1266;19259;-39
2023/04/26 06:52:06;;;;;;;;;4.00;2.00;;;;;21.60;36.28;100336.66;111650;1266;20121;-38
2023/04/26 06:54:33;;;;;;;;;2.00;2.00;;;;;21.60;36.04;100338.59;111941;1250;18895;-38
2023/04/26 06:57:01;;;;;;;;;2.67;2.67;;;;;21.61;36.37;100331.34;111609;1250;19502;-38
2023/04/26 06:59:28;;;;;;;;;2.00;2.00;;;;;21.67;36.52;100332.40;111939;1250;21876;-40
2023/04/26 07:01:56;;;;;;;;;2.00;2.00;;;;;21.76;36.81;100332.14;111639;1250;18714;-39
2023/04/26 07:04:23;;;;;;;;;2.00;2.00;;;;;21.86;37.78;100331.41;111958;1266;19360;-39
2023/04/26 07:06:50;;;;;;;;;1.50;1.50;;;;;21.91;38.44;100335.89;111651;1250;21573;-39
2023/04/26 07:09:18;;;;;;;;;5.00;4.00;;;;;21.92;38.76;100336.12;111971;1266;18766;-40
2023/04/26 07:11:45;;;;;;;;;3.00;3.00;;;;;21.88;38.71;100338.64;111644;1250;20750;-39
2023/04/26 07:14:13;;;;;;;;;7.00;4.00;;;;;21.85;38.59;100342.98;111974;1266;21453;-40
2023/04/26 07:16:40;;;;;;;;;5.00;5.00;;;;;21.80;38.29;100346.10;111665;1266;19514;-39
2023/04/26 07:19:09;;;;;;;;;5.00;5.00;;;;;21.76;37.74;100350.17;111982;1259;20807;-38
2023/04/26 07:21:37;;;;;;;;;4.00;4.00;;;;;21.76;37.94;100345.68;111438;1259;21607;-38
2023/04/26 07:24:05;;;;;;;;;4.00;4.00;;;;;21.79;38.37;100347.40;111812;1266;19569;-38
2023/04/26 07:26:32;;;;;;;;;4.00;4.00;;;;;21.86;38.66;100342.70;111829;1266;19423;-38
2023/04/26 07:28:59;;;;;;;;;4.00;4.00;;;;;21.94;38.62;100340.16;111786;1250;20095;-39
2023/04/26 07:31:27;;;;;;;;;7.00;5.00;;;;;21.96;38.86;100334.17;111600;1266;18718;-38
2023/04/26 07:33:54;;;;;;;;;2.00;2.00;;;;;22.01;39.08;100341.71;111813;1250;21793;-39
2023/04/26 07:36:22;;;;;;;;;2.00;2.00;;;;;22.05;39.46;100344.09;111465;1266;20632;-38
2023/04/26 07:38:49;;;;;;;;;5.00;4.00;;;;;22.12;40.09;100343.80;111788;1266;19607;-39
2023/04/26 07:41:17;;;;;;;;;4.00;4.00;;;;;22.18;40.99;100344.59;111456;1267;20695;-39
2023/04/26 07:43:44;;;;;;;;;6.00;5.00;;;;;22.08;39.87;100339.53;111834;1266;20254;-40
2023/04/26 07:46:11;;;;;;;;;4.00;4.00;;;;;21.82;37.33;100337.77;111509;1266;18755;-43
2023/04/26 07:48:39;;;;;;;;;2.00;2.00;;;;;21.66;36.40;100340.88;111797;1266;22185;-39
2023/04/26 07:51:06;;;;;;;;;2.00;2.00;;;;;21.59;35.97;100339.95;111500;1266;20302;-39
2023/04/26 07:53:34;;;;;;;;;2.00;2.00;;;;;21.68;36.35;100343.00;111864;1250;18724;-41
2023/04/26 07:56:01;;;;;;;;;2.00;1.50;;;;;21.80;36.61;100348.58;111551;1266;19355;-39
2023/04/26 07:58:29;;;;;;;;;2.00;2.00;;;;;21.86;36.83;100353.10;111843;1250;21654;-39
2023/04/26 08:00:56;;;;;;;;;2.00;2.00;;;;;21.94;37.26;100353.98;111543;1266;19603;-39
2023/04/26 08:03:24;;;;;;;;;4.00;4.00;;;;;22.03;37.62;100357.27;111890;1260;20718;-41
2023/04/26 08:05:52;;;;;;;;;4.00;2.00;;;;;22.09;38.11;100359.95;111566;1266;20129;-39
2023/04/26 08:08:20;;;;;;;;;2.00;2.00;;;;;22.15;38.58;100363.84;111823;1254;20055;-40
2023/04/26 08:10:47;;;;;;;;;2.00;2.00;;;;;22.17;38.73;100362.67;112057;1266;20866;-39
2023/04/26 08:13:15;;;;;;;;;2.00;2.00;;;;;22.16;38.93;100368.46;111708;1266;22569;-39
2023/04/26 08:15:43;;;;;;;;;4.00;2.67;;;;;22.11;39.39;100373.00;112026;1266;19136;-40
2023/04/26 08:18:10;;;;;;;;;1.50;1.50;;;;;22.05;39.34;100369.45;111720;1266;19390;-39
2023/04/26 08:20:37;;;;;;;;;4.00;4.00;;;;;21.97;39.00;100370.21;112016;1250;20126;-42
2023/04/26 08:23:05;;;;;;;;;2.00;2.00;;;;;21.92;37.80;100370.33;111736;1266;19649;-39
2023/04/26 08:25:33;;;;;;;;;2.00;2.00;;;;;21.87;37.31;100370.92;111996;1260;19358;-39
2023/04/26 08:28:01;;;;;;;;;2.00;2.00;;;;;21.85;36.71;100373.40;111310;1266;331001;-39
2023/04/26 08:30:28;;;;;;;;;4.50;4.50;;;;;21.82;36.12;100369.02;111921;1250;19548;-39
2023/04/26 08:32:56;;;;;;;;;5.00;3.00;;;;;21.81;36.02;100362.82;111595;1266;19532;-39
2023/04/26 08:35:23;;;;;;;;;2.00;2.00;;;;;21.79;35.48;100360.08;111929;1266;20131;-40
2023/04/26 08:37:51;;;;;;;;;2.00;2.00;;;;;21.78;35.00;100358.30;111605;1266;19605;-40
2023/04/26 08:40:18;;;;;;;;;4.00;4.00;;;;;21.76;34.71;100367.98;111921;1250;20793;-40
2023/04/26 08:42:45;;;;;;;;;5.00;4.00;;;;;21.74;34.52;100368.07;111637;1266;21511;-40
2023/04/26 08:45:13;;;;;;;;;2.00;2.00;;;;;21.74;34.21;100365.59;111975;1258;18679;-40
2023/04/26 08:47:41;;;;;;;;;4.00;2.00;;;;;21.72;33.58;100363.27;111652;1250;21835;-39
2023/04/26 08:50:08;;;;;;;;;2.00;2.00;;;;;21.70;33.35;100365.55;111874;1250;19718;-40
2023/04/26 08:52:36;;;;;;;;;1.67;1.67;;;;;21.67;33.18;100368.11;111543;1266;19526;-40
2023/04/26 08:55:04;;;;;;;;;4.00;4.00;;;;;21.65;33.16;100373.46;111910;1266;19362;-40
2023/04/26 08:57:31;;;;;;;;;4.00;2.00;;;;;21.64;33.08;100378.61;111522;1266;20426;-39
2023/04/26 09:00:00;;;;;;;;;2.00;2.00;;;;;21.61;32.78;100380.17;111830;1250;19548;-38
2023/04/26 09:02:27;;;;;;;;;2.00;2.00;;;;;21.59;32.69;100381.17;111969;1250;19580;-40
2023/04/26 09:04:55;;;;;;;;;2.00;2.00;;;;;21.58;32.56;100385.64;111756;1250;21675;-40
2023/04/26 09:07:22;;;;;;;;;2.00;2.00;;;;;21.55;32.21;100390.17;111970;1266;18937;-40
2023/04/26 09:09:50;;;;;;;;;4.50;4.00;;;;;21.54;32.24;100397.33;111725;1266;20711;-39
2023/04/26 09:12:17;;;;;;;;;1.00;1.00;;;;;21.52;32.12;100394.42;112021;1250;21502;-41
2023/04/26 09:14:45;;;;;;;;;2.00;2.00;;;;;21.51;32.08;100390.95;111755;1266;18639;-39
2023/04/26 09:17:12;;;;;;;;;4.00;4.00;;;;;21.50;31.83;100391.27;111763;1251;21761;-39
2023/04/26 09:19:41;;;;;;;;;4.00;4.00;;;;;21.48;31.96;100395.63;111817;1250;20094;-40
2023/04/26 09:22:08;;;;;;;;;2.00;2.00;;;;;21.49;31.83;100397.48;111892;1251;19687;-40
2023/04/26 09:24:36;;;;;;;;;4.00;2.00;;;;;21.49;31.97;100396.71;111551;1251;21988;-40
2023/04/26 09:27:03;;;;;;;;;5.00;2.00;;;;;21.46;31.91;100397.39;111916;1266;20118;-40
2023/04/26 09:29:31;;;;;;;;;2.00;2.00;;;;;21.44;31.86;100399.59;111631;1250;19676;-39
2023/04/26 09:31:58;;;;;;;;;4.00;2.00;;;;;21.43;32.04;100402.98;111896;1250;19320;-39
2023/04/26 09:34:26;;;;;;;;;2.00;2.00;;;;;21.08;31.48;100407.69;111587;1266;21513;-40
2023/04/26 09:36:54;;;;;;;;;2.00;2.00;;;;;20.39;31.10;100412.86;111945;1266;18752;-40
2023/04/26 09:39:22;;;;;;;;;7.00;7.00;;;;;20.15;31.14;100415.92;111523;1266;19777;-40
2023/04/26 09:41:49;;;;;;;;;4.00;4.00;;;;;19.94;30.58;100419.05;111794;1250;21447;-40
2023/04/26 09:44:17;;;;;;;;;5.00;4.00;;;;;19.74;30.28;100418.36;111432;1266;18789;-40
2023/04/26 09:46:44;;;;;;;;;6.00;4.00;;;;;19.62;30.28;100423.17;111816;1266;19339;-38
2023/04/26 09:49:12;;;;;;;;;3.00;3.00;;;;;20.03;30.66;100423.17;111468;1267;20152;-39
2023/04/26 09:51:39;;;;;;;;;3.00;3.00;;;;;20.51;30.51;100420.17;111827;1266;19539;-39
2023/04/26 09:54:07;;;;;;;;;3.00;3.00;;;;;20.71;30.71;100426.30;111453;1254;20832;-39
2023/04/26 09:56:35;;;;;;;;;4.00;4.00;;;;;20.85;31.13;100430.98;111818;1250;21550;-39
2023/04/26 09:59:04;;;;;;;;;4.00;4.00;;;;;20.94;31.56;100433.38;111532;1266;19560;-39
2023/04/26 10:01:32;;;;;;;;;6.00;6.00;;;;;21.01;31.78;100437.19;111493;1259;20738;-40
2023/04/26 10:03:59;;;;;;;;;4.00;4.00;;;;;21.02;31.71;100436.70;111809;1251;21469;-40
2023/04/26 10:06:27;;;;;;;;;6.50;6.00;;;;;21.06;31.85;100437.27;111503;1266;18802;-39
2023/04/26 10:08:54;;;;;;;;;7.00;5.00;;;;;21.07;31.88;100432.11;111797;1266;19349;-39
2023/04/26 10:11:22;;;;;;;;;4.00;4.00;;;;;21.08;31.76;100438.17;111484;1250;20250;-39
2023/04/26 10:13:49;;;;;;;;;4.00;4.00;;;;;21.08;31.62;100437.12;111807;1250;19662;-38
2023/04/26 10:16:16;;;;;;;;;5.00;5.00;;;;;21.04;31.75;100446.76;111516;1250;19383;-39
2023/04/26 10:18:44;;;;;;;;;4.50;4.50;;;;;21.14;32.05;100446.77;111822;1266;20211;-39
2023/04/26 10:21:11;;;;;;;;;4.00;4.00;;;;;21.22;32.17;100444.87;111528;1250;19633;-39
2023/04/26 10:23:39;;;;;;;;;5.00;4.67;;;;;21.28;32.25;100446.80;111860;1266;20033;-39
2023/04/26 10:26:06;;;;;;;;;5.00;5.00;;;;;21.31;32.29;100443.75;111551;1250;21562;-39
2023/04/26 10:28:33;;;;;;;;;4.00;4.00;;;;;21.35;32.54;100444.55;111902;1251;19570;-40
2023/04/26 10:31:01;;;;;;;;;2.00;2.00;;;;;21.37;32.80;100443.88;111583;1266;20639;-38
2023/04/26 10:33:28;;;;;;;;;4.00;4.00;;;;;21.41;32.75;100447.39;111893;1266;21509;-40
2023/04/26 10:35:56;;;;;;;;;2.00;2.00;;;;;21.43;33.01;100441.56;111594;1266;20734;-39
2023/04/26 10:38:23;;;;;;;;;2.00;2.00;;;;;21.45;33.02;100443.89;112003;1250;20909;-39
2023/04/26 10:40:51;;;;;;;;;7.00;4.00;;;;;21.46;33.23;100441.60;111653;1251;21587;-39
2023/04/26 10:43:18;;;;;;;;;2.00;2.00;;;;;21.47;33.67;100441.11;111884;1250;19533;-39
2023/04/26 10:45:46;;;;;;;;;3.00;3.00;;;;;21.47;33.73;100444.55;111616;1250;19542;-38
2023/04/26 10:48:13;;;;;;;;;4.00;2.00;;;;;21.49;33.94;100444.25;111967;1266;21482;-40
2023/04/26 10:50:40;;;;;;;;;4.50;2.00;;;;;21.51;34.06;100444.02;111611;1266;18762;-39
2023/04/26 10:53:08;;;;;;;;;1.67;1.67;;;;;21.51;34.29;100438.15;111961;1266;22092;-40
2023/04/26 10:55:35;;;;;;;;;1.00;1.00;;;;;21.52;34.26;100442.11;111691;1250;20155;-39
2023/04/26 10:58:03;;;;;;;;;2.00;2.00;;;;;21.52;34.54;100440.30;111985;1250;19669;-40
2023/04/26 11:00:30;;;;;;;;;2.00;2.00;;;;;21.52;34.55;100443.03;111700;1266;20712;-39
2023/04/26 11:02:58;;;;;;;;;2.00;2.00;;;;;21.53;34.95;100446.19;112005;1266;20175;-40
2023/04/26 11:05:25;;;;;;;;;2.00;2.00;;;;;21.52;35.02;100454.20;111684;1266;18770;-39
2023/04/26 11:07:53;;;;;;;;;4.00;2.00;;;;;21.52;35.24;100452.41;112008;1265;19372;-42
2023/04/26 11:10:20;;;;;;;;;1.00;1.00;;;;;21.53;35.31;100457.56;111729;1266;21443;-39
2023/04/26 11:12:47;;;;;;;;;2.00;1.00;;;;;21.53;35.38;100457.58;112017;1250;19573;-40
2023/04/26 11:15:15;;;;;;;;;1.00;1.00;;;;;21.55;35.55;100466.82;111717;1266;19329;-39
2023/04/26 11:17:42;;;;;;;;;1.00;1.00;;;;;21.54;35.76;100459.52;111816;1250;21369;-39